Time;durP1;ratioP1;P1;durP2;ratioP2;P2;SDS_P1;SDS_P2;PMS_P1;PMS_P2;Temp;Humidity;BMP_temperature;BMP_pressure;BME280_temperature;BME280_humidity;BME280_pressure;Samples;Min_cycle;Max_cycle;Signal;HPM_P1;HPM_P2
2021/08/01 00:01:07;;;;;;;5.63;1.90;;;16.20;99.90;;;;;;3570722;40;20033;-59
2021/08/01 00:03:32;;;;;;;2.28;1.90;;;16.30;99.90;;;;;;3578291;40;20805;-59
2021/08/01 00:05:58;;;;;;;5.13;1.90;;;16.10;99.90;;;;;;3571153;40;20037;-59
2021/08/01 00:08:24;;;;;;;3.42;2.05;;;16.10;99.90;;;;;;3570664;40;20381;-59
2021/08/01 00:10:49;;;;;;;4.00;2.03;;;16.20;99.90;;;;;;3570449;40;20657;-59
2021/08/01 00:13:15;;;;;;;2.50;2.05;;;16.30;99.90;;;;;;3570177;40;20047;-58
2021/08/01 00:15:40;;;;;;;4.63;1.98;;;16.20;99.90;;;;;;3570971;40;20152;-59
2021/08/01 00:18:06;;;;;;;4.00;2.40;;;16.20;99.90;;;;;;3571006;40;20060;-59
2021/08/01 00:20:31;;;;;;;6.00;2.50;;;16.20;99.90;;;;;;3571157;40;20156;-59
2021/08/01 00:22:57;;;;;;;2.50;2.05;;;16.20;99.90;;;;;;3570381;40;20043;-59
2021/08/01 00:25:22;;;;;;;5.25;2.00;;;16.20;99.90;;;;;;3571435;40;20021;-59
2021/08/01 00:27:49;;;;;;;3.03;2.10;;;16.00;99.90;;;;;;3578476;40;20043;-59
2021/08/01 00:30:15;;;;;;;3.33;2.15;;;16.00;99.90;;;;;;3570780;40;20039;-59
2021/08/01 00:32:40;;;;;;;4.68;2.22;;;16.00;99.90;;;;;;3578533;40;20322;-59
2021/08/01 00:35:06;;;;;;;8.57;2.67;;;16.00;99.90;;;;;;3578404;40;20130;-67
2021/08/01 00:37:31;;;;;;;4.95;2.47;;;16.00;99.90;;;;;;3571290;40;20163;-68
2021/08/01 00:39:57;;;;;;;4.25;2.53;;;16.00;99.90;;;;;;3570513;40;20041;-68
2021/08/01 00:42:22;;;;;;;5.55;2.47;;;16.00;99.90;;;;;;3571083;40;20044;-67
2021/08/01 00:44:48;;;;;;;6.60;2.40;;;15.90;99.90;;;;;;3571254;40;20073;-67
2021/08/01 00:47:14;;;;;;;4.07;2.50;;;16.00;99.90;;;;;;3571069;40;20041;-67
2021/08/01 00:49:40;;;;;;;3.13;2.70;;;15.90;99.90;;;;;;3578277;40;20060;-68
2021/08/01 00:52:05;;;;;;;5.63;2.22;;;15.90;99.90;;;;;;3569274;40;20115;-67
2021/08/01 00:54:31;;;;;;;4.00;2.55;;;15.80;99.90;;;;;;3577703;40;20033;-68
2021/08/01 00:56:57;;;;;;;3.17;2.70;;;15.80;99.90;;;;;;3569739;40;20033;-67
2021/08/01 00:59:22;;;;;;;5.32;2.60;;;15.70;99.90;;;;;;3570859;40;20029;-68
2021/08/01 01:01:49;;;;;;;4.45;2.28;;;15.80;99.90;;;;;;3570683;40;20010;-67
2021/08/01 01:04:15;;;;;;;4.03;2.50;;;15.80;99.90;;;;;;3577652;40;20044;-68
2021/08/01 01:06:41;;;;;;;8.55;2.70;;;15.70;99.90;;;;;;3570807;40;20045;-67
2021/08/01 01:09:07;;;;;;;5.35;2.78;;;15.70;99.90;;;;;;3568986;40;20627;-67
2021/08/01 01:11:52;;;;;;;7.68;2.20;;;15.70;99.90;;;;;;3568955;40;20157;-68
2021/08/01 01:14:19;;;;;;;3.20;2.33;;;15.70;99.90;;;;;;3577295;40;20036;-68
2021/08/01 01:16:44;;;;;;;7.10;2.70;;;15.60;99.90;;;;;;3576376;40;20069;-67
2021/08/01 01:19:11;;;;;;;5.28;2.90;;;15.60;99.90;;;;;;3570563;40;20439;-67
2021/08/01 01:21:36;;;;;;;4.93;2.72;;;15.70;99.90;;;;;;3578308;40;20033;-68
2021/08/01 01:24:02;;;;;;;3.50;2.80;;;15.70;99.90;;;;;;3571944;40;20409;-68
2021/08/01 01:26:54;;;;;;;5.70;3.05;;;15.70;99.90;;;;;;3570120;40;20141;-67
2021/08/01 01:29:19;;;;;;;6.07;2.70;;;15.70;99.90;;;;;;3579237;40;20521;-67
2021/08/01 01:31:49;;;;;;;4.85;2.90;;;15.60;99.90;;;;;;3578653;40;20048;-68
2021/08/01 01:34:16;;;;;;;3.17;2.30;;;15.60;99.90;;;;;;3572041;40;20724;-67
2021/08/01 01:36:43;;;;;;;4.45;2.38;;;15.60;99.90;;;;;;3579116;40;20088;-67
2021/08/01 01:39:12;;;;;;;4.35;2.65;;;15.60;99.90;;;;;;3570475;40;20041;-68
2021/08/01 01:42:07;;;;;;;5.38;3.03;;;15.60;99.90;;;;;;3569044;40;20543;-68
2021/08/01 01:44:46;;;;;;;3.35;2.60;;;15.60;99.90;;;;;;3569389;40;20806;-68
2021/08/01 01:47:12;;;;;;;6.80;3.20;;;15.50;99.90;;;;;;3571943;40;20482;-67
2021/08/01 01:49:38;;;;;;;5.32;3.10;;;15.60;99.90;;;;;;3578146;40;20036;-68
2021/08/01 01:52:06;;;;;;;7.97;3.80;;;15.60;99.90;;;;;;3570109;40;20151;-66
2021/08/01 01:54:31;;;;;;;3.05;2.70;;;15.60;99.90;;;;;;3571983;40;20037;-67
2021/08/01 01:56:58;;;;;;;5.00;3.03;;;15.60;99.90;;;;;;3570760;40;20028;-66
2021/08/01 01:59:29;;;;;;;3.67;2.78;;;15.50;99.90;;;;;;3570901;40;20031;-67
2021/08/01 02:01:55;;;;;;;3.58;3.00;;;15.50;99.90;;;;;;3571970;40;20412;-68
2021/08/01 02:04:21;;;;;;;13.35;3.10;;;15.40;99.90;;;;;;3572457;40;20052;-67
2021/08/01 02:07:05;;;;;;;7.38;2.92;;;15.40;99.90;;;;;;3570851;40;20055;-68
2021/08/01 02:09:39;;;;;;;3.83;2.85;;;15.30;99.90;;;;;;3571940;40;20040;-68
2021/08/01 02:12:16;;;;;;;7.40;3.17;;;15.20;99.90;;;;;;3569896;40;20041;-68
2021/08/01 02:14:43;;;;;;;5.43;3.08;;;15.20;99.90;;;;;;3578176;40;20056;-59
2021/08/01 02:17:08;;;;;;;4.20;3.25;;;15.20;99.90;;;;;;3570137;40;20044;-59
2021/08/01 02:19:36;;;;;;;5.60;3.08;;;15.20;99.90;;;;;;3570908;40;20043;-59
2021/08/01 02:22:02;;;;;;;6.28;3.28;;;12.70;99.90;;;;;;3577709;40;20426;-59
2021/08/01 02:24:30;;;;;;;6.82;3.20;;;15.20;99.90;;;;;;3570964;40;20026;-60
2021/08/01 02:26:56;;;;;;;4.30;2.80;;;15.20;99.90;;;;;;3570791;40;20031;-59
2021/08/01 02:29:22;;;;;;;5.68;3.30;;;15.20;99.90;;;;;;3576177;40;20033;-60
2021/08/01 02:31:47;;;;;;;6.72;3.95;;;15.20;99.90;;;;;;3570669;40;20051;-59
2021/08/01 02:34:13;;;;;;;5.55;3.58;;;15.20;99.90;;;;;;3570391;40;20285;-59
2021/08/01 02:36:39;;;;;;;5.63;3.53;;;15.20;99.90;;;;;;3568799;40;20041;-59
2021/08/01 02:39:05;;;;;;;4.53;3.08;;;15.20;99.90;;;;;;3571375;40;20033;-60
2021/08/01 02:41:30;;;;;;;9.13;3.65;;;15.10;99.90;;;;;;3570871;40;20112;-59
2021/08/01 02:43:57;;;;;;;5.70;3.45;;;15.10;99.90;;;;;;3570086;40;20033;-60
2021/08/01 02:46:22;;;;;;;4.90;3.65;;;15.00;99.90;;;;;;3571739;40;20079;-60
2021/08/01 02:48:48;;;;;;;5.18;3.78;;;15.10;99.90;;;;;;3572013;40;20025;-59
2021/08/01 02:51:13;;;;;;;4.63;3.78;;;15.10;99.90;;;;;;3570519;40;20035;-60
2021/08/01 02:53:42;;;;;;;12.20;3.80;;;15.10;99.90;;;;;;3570012;40;20034;-60
2021/08/01 02:56:08;;;;;;;6.00;3.63;;;15.10;99.90;;;;;;3569967;40;20089;-60
2021/08/01 02:58:33;;;;;;;6.00;4.05;;;15.10;99.90;;;;;;3570121;40;20025;-59
2021/08/01 03:00:59;;;;;;;7.70;3.97;;;15.10;99.90;;;;;;3570793;40;20311;-59
2021/08/01 03:03:25;;;;;;;5.45;3.50;;;15.10;99.90;;;;;;3571615;40;20755;-60
2021/08/01 03:05:51;;;;;;;5.97;3.92;;;15.10;99.90;;;;;;3569887;40;20029;-60
2021/08/01 03:08:17;;;;;;;6.53;4.03;;;15.10;99.90;;;;;;3580444;40;20752;-60
2021/08/01 03:10:44;;;;;;;7.43;3.70;;;15.00;99.90;;;;;;3568436;40;20036;-60
2021/08/01 03:13:10;;;;;;;4.95;3.67;;;15.00;99.90;;;;;;3578370;40;20041;-59
2021/08/01 03:15:36;;;;;;;7.18;3.78;;;15.10;99.90;;;;;;3568969;40;20493;-59
2021/08/01 03:18:02;;;;;;;7.15;3.80;;;15.00;99.90;;;;;;3577413;40;20044;-60
2021/08/01 03:20:28;;;;;;;8.23;4.45;;;15.00;99.90;;;;;;3577600;40;20729;-59
2021/08/01 03:23:29;;;;;;;9.60;3.92;;;15.00;99.90;;;;;;3568608;40;20041;-59
2021/08/01 03:26:13;;;;;;;6.28;3.80;;;15.00;99.90;;;;;;3570109;40;20851;-59
2021/08/01 03:28:44;;;;;;;7.05;4.07;;;14.80;99.90;;;;;;3575393;40;20040;-60
2021/08/01 03:31:11;;;;;;;7.10;4.10;;;15.00;99.90;;;;;;3577352;40;20049;-59
2021/08/01 03:33:49;;;;;;;7.40;4.20;;;14.90;99.90;;;;;;3567934;40;20404;-59
2021/08/01 03:36:16;;;;;;;7.65;4.65;;;15.00;99.90;;;;;;3569095;40;20041;-60
2021/08/01 03:39:01;;;;;;;3.63;3.33;;;14.90;99.90;;;;;;3571526;40;20079;-59
2021/08/01 03:41:36;;;;;;;5.90;3.90;;;14.80;99.90;;;;;;3570387;40;20037;-60
2021/08/01 03:44:02;;;;;;;8.50;3.90;;;14.90;99.90;;;;;;3570217;40;20065;-59
2021/08/01 03:46:28;;;;;;;4.93;4.05;;;14.90;99.90;;;;;;3570501;40;20040;-59
2021/08/01 03:48:53;;;;;;;7.05;4.18;;;14.90;99.90;;;;;;3568439;40;20041;-59
2021/08/01 03:51:19;;;;;;;8.30;4.00;;;15.00;99.90;;;;;;3568829;40;20033;-61
2021/08/01 03:53:44;;;;;;;4.22;3.67;;;15.00;99.90;;;;;;3569934;40;20073;-60
2021/08/01 03:56:10;;;;;;;10.07;4.45;;;14.90;99.90;;;;;;3577943;40;20446;-59
2021/08/01 03:58:35;;;;;;;5.93;4.40;;;14.90;99.90;;;;;;3569072;40;20037;-59
2021/08/01 04:01:01;;;;;;;7.90;4.15;;;14.80;99.90;;;;;;3577668;40;20069;-59
2021/08/01 04:03:27;;;;;;;6.05;3.78;;;14.90;99.90;;;;;;3570530;40;20040;-59
2021/08/01 04:05:52;;;;;;;7.32;4.40;;;14.90;99.90;;;;;;3570969;40;20021;-60
2021/08/01 04:08:18;;;;;;;6.07;3.90;;;14.90;99.90;;;;;;3570876;40;20049;-60
2021/08/01 04:10:43;;;;;;;9.60;4.70;;;14.90;99.90;;;;;;3570188;40;20491;-59
2021/08/01 04:13:09;;;;;;;7.15;3.88;;;14.90;99.90;;;;;;3569206;40;20299;-59
2021/08/01 04:15:34;;;;;;;7.38;4.10;;;15.00;99.90;;;;;;3570560;40;20033;-59
2021/08/01 04:18:05;;;;;;;6.40;3.88;;;15.00;99.90;;;;;;3571944;40;20045;-60
2021/08/01 04:20:31;;;;;;;7.90;4.30;;;15.00;99.90;;;;;;3570108;40;20571;-59
2021/08/01 04:22:56;;;;;;;7.18;4.00;;;15.10;99.90;;;;;;3570966;40;20045;-60
2021/08/01 04:25:22;;;;;;;5.00;3.60;;;15.10;99.90;;;;;;3571158;40;20049;-59
2021/08/01 04:27:47;;;;;;;7.10;3.85;;;15.10;99.90;;;;;;3570243;40;20037;-59
2021/08/01 04:30:12;;;;;;;4.78;3.85;;;15.30;99.90;;;;;;3569742;40;20119;-59
2021/08/01 04:32:38;;;;;;;5.65;3.95;;;15.20;99.90;;;;;;3570820;40;20349;-60
2021/08/01 04:35:04;;;;;;;5.10;3.95;;;15.30;99.90;;;;;;3577208;40;20021;-60
2021/08/01 04:37:29;;;;;;;5.88;3.95;;;15.30;99.90;;;;;;3570772;40;20049;-60
2021/08/01 04:39:55;;;;;;;9.50;3.92;;;15.40;99.90;;;;;;3569572;40;20061;-59
2021/08/01 04:42:20;;;;;;;5.18;4.07;;;15.50;99.90;;;;;;3570128;40;20190;-60
2021/08/01 04:44:46;;;;;;;6.32;4.13;;;15.60;99.90;;;;;;3570117;40;20037;-60
2021/08/01 04:47:13;;;;;;;4.93;4.07;;;15.70;99.90;;;;;;3568268;40;20858;-59
2021/08/01 04:49:38;;;;;;;5.72;4.65;;;15.80;99.90;;;;;;3566439;40;20461;-60
2021/08/01 04:52:04;;;;;;;8.15;3.88;;;15.80;99.90;;;;;;3568849;40;20069;-59
2021/08/01 04:54:29;;;;;;;7.55;4.75;;;15.90;99.90;;;;;;3569343;40;20071;-60
2021/08/01 04:56:55;;;;;;;5.82;4.10;;;16.00;99.90;;;;;;3568749;40;20033;-68
2021/08/01 04:59:20;;;;;;;5.13;4.10;;;16.10;99.90;;;;;;3569300;40;20498;-68
2021/08/01 05:01:46;;;;;;;6.18;4.68;;;16.20;99.90;;;;;;3569007;40;20036;-68
2021/08/01 05:04:12;;;;;;;7.18;4.10;;;16.20;99.90;;;;;;3570621;40;20118;-67
2021/08/01 05:06:37;;;;;;;6.18;4.15;;;16.30;99.90;;;;;;3569283;40;20033;-68
2021/08/01 05:09:03;;;;;;;4.97;3.90;;;16.50;99.90;;;;;;3569487;40;20041;-68
2021/08/01 05:11:28;;;;;;;4.82;3.72;;;16.40;99.90;;;;;;3570059;40;20168;-68
2021/08/01 05:13:54;;;;;;;6.53;4.60;;;16.50;99.90;;;;;;3574837;40;20552;-68
2021/08/01 05:16:19;;;;;;;5.28;3.45;;;16.60;99.90;;;;;;3567940;40;20041;-68
2021/08/01 05:18:45;;;;;;;6.43;4.63;;;16.60;99.90;;;;;;3570369;40;20045;-67
2021/08/01 05:21:11;;;;;;;7.22;4.07;;;16.80;99.90;;;;;;3568820;40;20043;-67
2021/08/01 05:23:36;;;;;;;6.47;4.10;;;16.80;99.90;;;;;;3575241;40;20386;-67
2021/08/01 05:26:01;;;;;;;7.43;4.60;;;16.80;99.90;;;;;;3575157;40;20067;-67
2021/08/01 05:28:27;;;;;;;6.55;3.97;;;16.90;99.90;;;;;;3568908;40;20036;-68
2021/08/01 05:30:52;;;;;;;8.40;4.35;;;16.90;99.90;;;;;;3576940;40;20134;-68
2021/08/01 05:33:18;;;;;;;7.97;4.55;;;17.00;99.90;;;;;;3568609;40;20169;-68
2021/08/01 05:35:44;;;;;;;10.63;4.30;;;17.00;99.90;;;;;;3569440;40;20032;-68
2021/08/01 05:38:09;;;;;;;7.00;4.07;;;17.10;99.90;;;;;;3570547;40;20458;-68
2021/08/01 05:40:35;;;;;;;8.55;4.30;;;17.10;99.90;;;;;;3568773;40;20025;-68
2021/08/01 05:43:00;;;;;;;5.13;3.92;;;17.20;99.90;;;;;;3569749;40;20093;-68
2021/08/01 05:45:26;;;;;;;13.68;4.53;;;17.20;99.90;;;;;;3570206;40;20303;-68
2021/08/01 05:47:51;;;;;;;6.60;4.22;;;17.30;99.90;;;;;;3567676;40;20061;-68
2021/08/01 05:50:17;;;;;;;9.57;4.70;;;17.40;99.90;;;;;;3569791;40;20041;-68
2021/08/01 05:52:43;;;;;;;7.20;4.80;;;17.50;99.90;;;;;;3568682;40;20536;-68
2021/08/01 05:55:08;;;;;;;9.75;4.68;;;17.50;99.90;;;;;;3568739;40;20034;-68
2021/08/01 05:57:34;;;;;;;7.75;4.13;;;17.60;99.90;;;;;;3575384;40;20033;-68
2021/08/01 06:00:00;;;;;;;5.75;3.20;;;17.60;99.90;;;;;;3576334;40;20108;-68
2021/08/01 06:02:25;;;;;;;6.78;4.07;;;17.70;99.90;;;;;;3568556;40;20424;-68
2021/08/01 06:04:51;;;;;;;8.57;3.97;;;17.70;99.90;;;;;;3576888;40;20041;-68
2021/08/01 06:07:17;;;;;;;9.75;4.95;;;17.80;99.90;;;;;;3569328;40;20127;-68
2021/08/01 06:09:43;;;;;;;4.35;3.55;;;17.80;99.90;;;;;;3572088;40;20153;-68
2021/08/01 06:12:10;;;;;;;5.15;3.78;;;17.80;99.90;;;;;;3570284;40;20222;-68
2021/08/01 06:14:36;;;;;;;6.60;4.20;;;17.80;99.90;;;;;;3571456;40;20041;-68
2021/08/01 06:17:01;;;;;;;11.52;4.82;;;17.90;99.90;;;;;;3570321;40;20679;-68
2021/08/01 06:19:27;;;;;;;5.60;3.78;;;18.10;99.90;;;;;;3570850;40;20134;-68
2021/08/01 06:21:52;;;;;;;5.78;3.72;;;18.10;99.90;;;;;;3571097;40;20044;-68
2021/08/01 06:24:18;;;;;;;13.73;4.88;;;18.20;99.90;;;;;;3571937;40;20040;-68
2021/08/01 06:26:43;;;;;;;6.63;4.13;;;18.20;99.90;;;;;;3578754;40;20029;-67
2021/08/01 06:29:09;;;;;;;9.98;4.85;;;18.20;99.90;;;;;;3572426;40;20025;-70
2021/08/01 06:31:34;;;;;;;12.50;6.78;;;18.20;99.90;;;;;;3571517;40;20026;-70
2021/08/01 06:34:00;;;;;;;6.38;4.38;;;18.30;99.90;;;;;;3570445;40;20056;-70
2021/08/01 06:36:25;;;;;;;15.30;7.88;;;18.20;99.90;;;;;;3571343;40;20029;-70
2021/08/01 06:38:51;;;;;;;8.07;4.32;;;18.30;99.90;;;;;;3571487;40;20111;-69
2021/08/01 06:41:16;;;;;;;5.53;4.40;;;18.20;99.90;;;;;;3567468;40;20029;-71
2021/08/01 06:43:42;;;;;;;6.28;4.32;;;18.40;99.90;;;;;;3570197;40;20051;-70
2021/08/01 06:46:08;;;;;;;13.05;4.85;;;18.40;99.90;;;;;;3569985;40;20033;-70
2021/08/01 06:48:35;;;;;;;9.63;4.70;;;18.30;99.90;;;;;;3579302;40;20048;-70
2021/08/01 06:51:02;;;;;;;9.43;4.50;;;18.40;99.90;;;;;;3569733;40;20340;-70
2021/08/01 06:53:27;;;;;;;7.50;5.15;;;18.30;99.90;;;;;;3570805;40;20084;-69
2021/08/01 06:55:53;;;;;;;9.43;5.32;;;18.40;99.90;;;;;;3578979;40;20037;-69
2021/08/01 06:58:19;;;;;;;11.13;4.82;;;18.50;99.90;;;;;;3571084;40;20395;-69
2021/08/01 07:00:44;;;;;;;7.47;4.13;;;18.60;99.90;;;;;;3568891;40;20407;-70
2021/08/01 07:03:09;;;;;;;11.13;4.70;;;18.70;99.90;;;;;;3568690;40;20063;-70
2021/08/01 07:05:35;;;;;;;9.00;4.97;;;19.00;99.90;;;;;;3568902;40;20045;-69
2021/08/01 07:08:00;;;;;;;8.85;4.22;;;19.10;99.90;;;;;;3578361;40;20064;-69
2021/08/01 07:10:26;;;;;;;7.15;3.85;;;19.10;99.90;;;;;;3569279;40;20317;-69
2021/08/01 07:12:51;;;;;;;9.80;5.28;;;19.20;99.90;;;;;;3571360;40;20041;-70
2021/08/01 07:15:17;;;;;;;9.20;4.53;;;19.30;99.90;;;;;;3565291;40;20230;-69
2021/08/01 07:17:43;;;;;;;9.45;4.07;;;19.30;99.90;;;;;;3570824;40;20163;-71
2021/08/01 07:20:08;;;;;;;11.13;4.72;;;19.30;99.90;;;;;;3569629;40;20431;-71
2021/08/01 07:22:34;;;;;;;7.38;4.00;;;19.50;99.90;;;;;;3570834;40;20041;-69
2021/08/01 07:24:59;;;;;;;8.07;4.45;;;19.70;99.90;;;;;;3571110;40;20037;-67
2021/08/01 07:27:25;;;;;;;7.18;4.05;;;19.70;99.90;;;;;;3578827;40;20021;-69
2021/08/01 07:29:50;;;;;;;10.23;3.90;;;19.70;99.90;;;;;;3568598;40;20041;-69
2021/08/01 07:32:15;;;;;;;9.55;4.40;;;19.60;99.90;;;;;;3569846;40;20453;-69
2021/08/01 07:34:41;;;;;;;8.75;4.25;;;19.60;99.90;;;;;;3569544;40;20033;-72
2021/08/01 07:37:06;;;;;;;9.27;3.90;;;19.60;99.90;;;;;;3570795;40;20032;-71
2021/08/01 07:39:32;;;;;;;5.88;3.80;;;19.60;99.90;;;;;;3571068;40;20044;-69
2021/08/01 07:41:57;;;;;;;5.55;4.13;;;19.50;99.90;;;;;;3571610;40;20036;-71
2021/08/01 07:44:25;;;;;;;6.88;3.92;;;19.40;99.90;;;;;;3571345;40;20025;-71
2021/08/01 07:46:51;;;;;;;5.18;3.50;;;19.20;99.90;;;;;;3571403;40;20750;-69
2021/08/01 07:49:16;;;;;;;8.65;4.07;;;19.10;99.90;;;;;;3569350;40;20032;-69
2021/08/01 07:51:42;;;;;;;6.35;3.63;;;19.20;99.90;;;;;;3568367;40;20036;-70
2021/08/01 07:54:07;;;;;;;16.15;4.40;;;19.40;99.90;;;;;;3569650;40;20029;-69
2021/08/01 07:56:32;;;;;;;12.25;4.15;;;19.60;99.90;;;;;;3578239;40;20039;-69
2021/08/01 07:58:58;;;;;;;13.90;3.88;;;19.70;99.90;;;;;;3576407;40;20025;-69
2021/08/01 08:01:24;;;;;;;10.55;5.32;;;20.20;99.90;;;;;;3576346;40;20153;-69
2021/08/01 08:03:49;;;;;;;6.30;3.88;;;20.30;99.90;;;;;;3577665;40;20629;-65
2021/08/01 08:06:15;;;;;;;7.57;3.25;;;20.80;99.90;;;;;;3568824;40;20032;-66
2021/08/01 08:08:40;;;;;;;5.00;3.28;;;20.90;99.90;;;;;;3569553;40;20722;-66
2021/08/01 08:11:06;;;;;;;4.60;3.05;;;21.00;99.90;;;;;;3568349;40;20316;-66
2021/08/01 08:13:31;;;;;;;6.53;3.28;;;21.00;99.90;;;;;;3570994;40;20040;-66
2021/08/01 08:15:57;;;;;;;9.45;3.40;;;21.00;99.80;;;;;;3570301;40;20056;-70
2021/08/01 08:18:22;;;;;;;7.78;3.33;;;21.00;99.90;;;;;;3570798;40;20036;-70
2021/08/01 08:20:48;;;;;;;5.38;3.30;;;21.00;99.80;;;;;;3569211;40;20029;-69
2021/08/01 08:23:15;;;;;;;6.03;3.30;;;21.00;99.00;;;;;;3569540;40;20072;-70
2021/08/01 08:25:41;;;;;;;4.95;2.85;;;21.00;99.90;;;;;;3571026;40;20125;-70
2021/08/01 08:28:06;;;;;;;8.80;3.10;;;21.00;99.90;;;;;;3569916;40;20682;-69
2021/08/01 08:30:32;;;;;;;6.07;2.95;;;20.90;99.60;;;;;;3570309;40;20033;-70
2021/08/01 08:32:57;;;;;;;6.68;3.22;;;21.10;99.90;;;;;;3570535;40;20621;-70
2021/08/01 08:35:23;;;;;;;4.75;2.80;;;21.10;99.50;;;;;;3569185;40;20061;-72
2021/08/01 08:37:49;;;;;;;6.38;3.22;;;21.10;99.90;;;;;;3569567;40;20044;-69
2021/08/01 08:40:14;;;;;;;7.50;2.95;;;21.40;99.50;;;;;;3569867;40;20037;-69
2021/08/01 08:42:40;;;;;;;5.82;3.35;;;21.80;98.50;;;;;;3571152;40;20065;-69
2021/08/01 08:45:05;;;;;;;4.97;2.95;;;21.80;97.90;;;;;;3570302;40;20548;-69
2021/08/01 08:47:36;;;;;;;11.07;3.13;;;22.20;98.50;;;;;;3571342;40;20054;-69
2021/08/01 08:50:02;;;;;;;6.50;3.38;;;22.50;97.00;;;;;;3561313;40;20029;-70
2021/08/01 08:52:27;;;;;;;4.38;3.10;;;22.80;96.60;;;;;;3570569;40;20307;-70
2021/08/01 08:54:53;;;;;;;9.23;2.80;;;22.70;95.80;;;;;;3571066;40;20036;-70
2021/08/01 08:57:18;;;;;;;9.43;3.50;;;22.70;96.50;;;;;;3569046;40;20065;-70
2021/08/01 08:59:44;;;;;;;8.43;2.92;;;22.90;95.50;;;;;;3567346;40;20036;-68
2021/08/01 09:02:09;;;;;;;7.90;2.70;;;22.50;95.10;;;;;;3567621;40;20069;-68
2021/08/01 09:04:35;;;;;;;4.30;2.22;;;23.10;95.40;;;;;;3570015;40;20407;-68
2021/08/01 09:07:01;;;;;;;8.73;2.55;;;23.10;94.80;;;;;;3577821;40;20037;-69
2021/08/01 09:09:26;;;;;;;5.07;2.58;;;23.10;95.30;;;;;;3571394;40;20091;-68
2021/08/01 09:11:52;;;;;;;6.47;2.50;;;23.10;95.90;;;;;;3569789;40;20038;-69
2021/08/01 09:14:18;;;;;;;7.30;2.50;;;23.20;94.50;;;;;;3569306;40;20045;-69
2021/08/01 09:16:43;;;;;;;8.07;2.80;;;23.10;95.10;;;;;;3577582;40;20025;-69
2021/08/01 09:19:09;;;;;;;5.38;2.60;;;23.20;95.00;;;;;;3570319;40;20049;-68
2021/08/01 09:21:35;;;;;;;10.07;5.28;;;23.40;94.50;;;;;;3577277;40;20044;-68
2021/08/01 09:24:00;;;;;;;5.78;3.42;;;23.50;94.00;;;;;;3577668;40;20085;-68
2021/08/01 09:26:26;;;;;;;4.07;2.30;;;23.40;94.00;;;;;;3575151;40;20021;-68
2021/08/01 09:28:51;;;;;;;3.35;1.80;;;23.50;94.00;;;;;;3570471;40;20032;-68
2021/08/01 09:31:17;;;;;;;6.75;2.95;;;23.70;94.40;;;;;;3569420;40;20334;-65
2021/08/01 09:33:43;;;;;;;6.00;2.10;;;23.90;94.60;;;;;;3569167;40;20061;-65
2021/08/01 09:36:08;;;;;;;6.38;1.83;;;24.40;92.40;;;;;;3569629;40;20422;-65
2021/08/01 09:38:34;;;;;;;3.38;1.77;;;25.60;92.60;;;;;;3571343;40;20037;-64
2021/08/01 09:40:59;;;;;;;3.78;1.77;;;24.80;92.60;;;;;;3569200;40;20051;-64
2021/08/01 09:43:25;;;;;;;3.50;1.65;;;25.90;89.70;;;;;;3579736;40;20036;-65
2021/08/01 09:45:51;;;;;;;3.03;1.70;;;;;;;;;;3578936;40;20024;-65
2021/08/01 09:48:17;;;;;;;5.10;1.58;;;;;;;;;;3578273;40;20294;-65
2021/08/01 09:50:43;;;;;;;4.47;2.05;;;;;;;;;;3569189;40;20041;-65
2021/08/01 09:53:09;;;;;;;3.55;2.47;;;;;;;;;;3570393;40;20025;-65
2021/08/01 09:55:34;;;;;;;7.93;2.10;;;25.30;89.80;;;;;;3570441;40;20033;-64
2021/08/01 09:58:01;;;;;;;4.55;1.90;;;;;;;;;;3571013;40;20122;-64
2021/08/01 10:00:27;;;;;;;5.53;2.00;;;;;;;;;;3577148;40;20073;-64
2021/08/01 10:02:54;;;;;;;5.38;1.98;;;;;;;;;;3570915;40;20717;-64
2021/08/01 10:05:20;;;;;;;3.22;1.52;;;;;;;;;;3578451;40;20033;-64
2021/08/01 10:07:45;;;;;;;6.25;2.35;;;24.00;91.50;;;;;;3572191;40;20045;-64
2021/08/01 10:10:11;;;;;;;4.25;1.80;;;;;;;;;;3571882;40;20127;-64
2021/08/01 10:12:37;;;;;;;5.82;3.28;;;23.40;92.50;;;;;;3570914;40;20070;-64
2021/08/01 10:15:03;;;;;;;5.60;2.80;;;23.40;93.10;;;;;;3579209;40;20385;-65
2021/08/01 10:17:28;;;;;;;7.80;2.30;;;23.30;92.90;;;;;;3570439;40;20037;-64
2021/08/01 10:19:53;;;;;;;7.78;3.72;;;23.50;92.40;;;;;;3570647;40;20041;-66
2021/08/01 10:22:19;;;;;;;3.38;2.00;;;23.70;93.10;;;;;;3569826;40;20032;-65
2021/08/01 10:24:46;;;;;;;3.25;2.00;;;24.00;91.60;;;;;;3571801;40;20021;-66
2021/08/01 10:27:12;;;;;;;6.68;1.90;;;24.20;91.50;;;;;;3571501;40;20303;-65
2021/08/01 10:29:37;;;;;;;3.60;1.73;;;24.40;91.20;;;;;;3568055;40;20041;-65
2021/08/01 10:32:03;;;;;;;2.70;1.48;;;24.10;90.50;;;;;;3577720;40;20040;-70
2021/08/01 10:34:35;;;;;;;8.15;2.65;;;23.90;91.60;;;;;;3570564;40;20036;-70
2021/08/01 10:37:00;;;;;;;3.92;1.95;;;23.70;91.60;;;;;;3570636;40;20029;-71
2021/08/01 10:39:26;;;;;;;6.43;2.20;;;23.60;91.80;;;;;;3571826;40;20033;-70
2021/08/01 10:41:51;;;;;;;4.45;2.55;;;23.70;92.40;;;;;;3561350;40;20036;-70
2021/08/01 10:44:17;;;;;;;6.68;2.25;;;23.90;92.20;;;;;;3579617;40;20032;-71
2021/08/01 10:46:42;;;;;;;7.95;3.83;;;23.90;91.50;;;;;;3570630;40;20036;-71
2021/08/01 10:49:08;;;;;;;3.40;2.40;;;24.00;92.30;;;;;;3573063;40;20037;-70
2021/08/01 10:51:33;;;;;;;3.53;2.53;;;24.00;92.60;;;;;;3577918;40;20411;-70
2021/08/01 10:53:59;;;;;;;5.05;1.83;;;23.70;92.00;;;;;;3571119;40;20053;-69
2021/08/01 10:56:24;;;;;;;3.92;1.92;;;23.60;91.80;;;;;;3575530;40;20118;-69
2021/08/01 10:58:50;;;;;;;2.13;1.70;;;23.60;91.80;;;;;;3572577;40;20043;-69
2021/08/01 11:01:15;;;;;;;2.90;1.92;;;23.40;92.00;;;;;;3570297;40;20579;-69
2021/08/01 11:03:41;;;;;;;9.75;2.20;;;23.30;92.50;;;;;;3571520;40;20039;-69
2021/08/01 11:06:07;;;;;;;4.55;1.92;;;23.00;92.10;;;;;;3567150;40;20065;-65
2021/08/01 11:08:35;;;;;;;5.55;2.40;;;22.90;92.70;;;;;;3569530;40;20099;-70
2021/08/01 11:11:00;;;;;;;5.85;2.08;;;23.00;92.70;;;;;;3574808;40;20032;-70
2021/08/01 11:13:29;;;;;;;3.42;1.77;;;23.20;92.50;;;;;;3569677;40;20043;-70
2021/08/01 11:15:54;;;;;;;5.78;1.70;;;23.60;93.10;;;;;;3569917;40;20094;-70
2021/08/01 11:18:20;;;;;;;5.03;1.85;;;24.20;91.80;;;;;;3568439;40;20115;-70
2021/08/01 11:20:45;;;;;;;5.63;2.13;;;24.60;90.80;;;;;;3568092;40;20410;-70
2021/08/01 11:23:11;;;;;;;2.95;1.83;;;24.80;90.00;;;;;;3568880;40;20545;-70
2021/08/01 11:25:37;;;;;;;5.10;1.60;;;24.90;88.70;;;;;;3569620;40;20047;-70
2021/08/01 11:28:03;;;;;;;4.55;2.53;;;25.10;90.00;;;;;;3568692;40;20045;-70
2021/08/01 11:30:28;;;;;;;3.28;1.95;;;25.30;88.90;;;;;;3570361;40;20029;-70
2021/08/01 11:32:54;;;;;;;5.40;2.63;;;25.50;88.00;;;;;;3571601;40;20040;-71
2021/08/01 11:35:19;;;;;;;1.98;1.50;;;25.70;89.70;;;;;;3578088;40;20032;-70
2021/08/01 11:37:45;;;;;;;2.70;1.33;;;26.20;85.20;;;;;;3567592;40;20044;-69
2021/08/01 11:40:12;;;;;;;3.15;1.45;;;26.10;86.10;;;;;;3569779;40;20094;-69
2021/08/01 11:42:37;;;;;;;4.32;1.60;;;26.20;86.10;;;;;;3570955;40;20033;-68
2021/08/01 11:45:03;;;;;;;3.88;2.40;;;26.30;83.30;;;;;;3570061;40;20762;-68
2021/08/01 11:47:29;;;;;;;4.32;1.90;;;25.90;83.30;;;;;;3570748;40;20029;-68
2021/08/01 11:49:54;;;;;;;5.05;1.83;;;25.50;85.40;;;;;;3577416;40;20033;-68
2021/08/01 11:52:20;;;;;;;1.60;1.35;;;25.60;85.90;;;;;;3570989;40;20173;-69
2021/08/01 11:54:46;;;;;;;2.03;1.17;;;25.90;85.60;;;;;;3569996;40;20583;-69
2021/08/01 11:57:11;;;;;;;2.58;1.27;;;26.10;84.20;;;;;;3567944;40;20065;-69
2021/08/01 11:59:37;;;;;;;2.95;1.50;;;26.20;82.60;;;;;;3569212;40;20040;-70
2021/08/01 12:02:03;;;;;;;1.67;1.48;;;26.40;83.20;;;;;;3569651;40;20069;-69
2021/08/01 12:04:29;;;;;;;1.55;1.40;;;26.70;82.30;;;;;;3577318;40;20429;-70
2021/08/01 12:06:54;;;;;;;1.65;1.30;;;27.10;83.50;;;;;;3569585;40;20033;-69
2021/08/01 12:09:20;;;;;;;1.77;1.30;;;;;;;;;;3570787;40;20049;-68
2021/08/01 12:11:46;;;;;;;1.63;1.10;;;27.00;79.40;;;;;;3569709;40;20033;-68
2021/08/01 12:14:13;;;;;;;2.28;1.40;;;;;;;;;;3570741;40;20017;-69
2021/08/01 12:16:39;;;;;;;2.97;1.30;;;27.00;82.30;;;;;;3570694;40;20036;-69
2021/08/01 12:19:05;;;;;;;2.28;1.15;;;;;;;;;;3570267;40;20457;-69
2021/08/01 12:21:31;;;;;;;2.40;1.45;;;;;;;;;;3577583;40;20076;-69
2021/08/01 12:23:56;;;;;;;2.33;1.25;;;27.10;82.00;;;;;;3570039;40;20032;-69
2021/08/01 12:26:23;;;;;;;1.88;1.20;;;;;;;;;;3580394;40;20117;-68
2021/08/01 12:28:49;;;;;;;2.47;1.15;;;;;;;;;;3569674;40;20142;-70
2021/08/01 12:31:15;;;;;;;2.58;1.30;;;;;;;;;;3576124;40;20373;-69
2021/08/01 12:33:40;;;;;;;3.60;1.40;;;24.00;76.20;;;;;;3568987;40;20130;-69
2021/08/01 12:36:06;;;;;;;4.93;1.42;;;;;;;;;;3569934;40;20415;-69
2021/08/01 12:38:32;;;;;;;1.63;1.15;;;;;;;;;;3570996;40;20126;-69
2021/08/01 12:40:58;;;;;;;2.60;2.03;;;26.10;80.40;;;;;;3569953;40;20044;-70
2021/08/01 12:43:23;;;;;;;4.40;1.52;;;26.10;81.90;;;;;;3569550;40;20033;-70
2021/08/01 12:45:51;;;;;;;3.20;1.50;;;25.60;81.00;;;;;;3569762;40;20056;-69
2021/08/01 12:48:17;;;;;;;2.35;1.35;;;25.30;80.80;;;;;;3570762;40;20052;-72